Flight Track Log - Related Links

Times and Time Zones

All times are in EDT time to prevent confusion due to time zone crossing. See the FLG4081 flight status page for this flight to view local times or setup timezone preferences in your user account.

Time Position Orientation Groundspeed Altitude Reporting Facility
EDT Latitude Longitude Course Direction KTS MPH feet Rate Location/Type
Wed 10:39:24 PM 42.2250 -83.3339 292° West 151 174 1,400  Level Cleveland Center
Wed 10:40:31 PM 42.2203 -83.2692 96° East 202 232 4,000 1,279 Climbing Cleveland Center
Wed 10:41:26 PM 42.2203 -83.1853 90° East 269 310 4,000  Level Cleveland Center
Wed 10:42:00 PM 42.2839 -83.6354 289° West  Level FlightAware Approximate
Wed 10:42:33 PM 42.2350 -83.0792 79° East 264 304 4,000  Level Cleveland Center
Wed 10:43:00 PM 42.3012 -83.7227 285° West  Level FlightAware Approximate
Wed 10:43:52 PM 42.2933 -82.9861 50° Northeast 269 310 4,100  Level Cleveland Center
Wed 10:44:00 PM 42.3221 -83.8179 292° West  Level FlightAware Approximate
Wed 10:44:46 PM 42.3547 -82.9378 30° Northeast 285 328 5,200  Level Cleveland Center
Wed 10:45:41 PM 42.4142 -82.8867 32° Northeast 294 338 6,200 1,091 Climbing Cleveland Center
Wed 10:46:47 PM 42.4908 -82.7992 40° Northeast 313 360 7,400 1,039 Climbing Cleveland Center
Wed 10:47:48 PM 42.5489 -82.7083 49° Northeast 330 380 8,400 1,125 Climbing Cleveland Center
Wed 10:48:55 PM 42.6408 -82.6972 North 316 364 9,800 793 Climbing Cleveland Center
Wed 10:49:49 PM 42.7086 -82.7503 330° Northwest 313 360 10,000 104 Climbing Cleveland Center
Wed 10:50:50 PM 42.7294 -82.8558 285° West 297 342 10,000  Level Cleveland Center
Wed 10:51:33 PM 42.7425 -82.9411 282° West 299 344 10,000  Level Cleveland Center
Wed 10:52:33 PM 42.7483 -83.0514 274° West 274 315 10,000  Level Cleveland Center
Wed 10:53:58 PM 42.7431 -83.1983 267° West 285 328 10,000  Level Cleveland Center
Wed 10:55:05 PM 42.7342 -83.3194 264° West 288 331 10,000  Level Cleveland Center
Wed 10:56:00 PM 42.7275 -83.4181 265° West 290 334 10,000  Level Cleveland Center
Wed 10:57:12 PM 42.7158 -83.5506 263° West 297 342 10,000 -8 Level Cleveland Center
Wed 10:59:00 PM 42.6668 -83.6995 246° West  Level FlightAware Approximate
Wed 11:06:00 PM 42.4887 -84.2850 254° West  Level FlightAware Approximate
Wed 11:07:00 PM 42.4706 -84.3720 254° West  Level FlightAware Approximate
Wed 11:08:00 PM 42.4524 -84.4589 254° West  Level FlightAware Approximate
Wed 11:08:04 PM 42.4644 -84.7731 255° West 310 357 9,900  Level Chicago Center
Wed 11:09:00 PM 42.4342 -84.5458 254° West  Level FlightAware Approximate
Wed 11:09:05 PM 42.4797 -84.8872 280° West 321 369 10,000  Level Chicago Center
Wed 11:10:00 PM 42.4178 -84.6333 256° West  Level FlightAware Approximate
Wed 11:10:06 PM 42.4561 -84.9967 254° West 308 354 9,900  Level Chicago Center
Wed 11:11:00 PM 42.4014 -84.7208 256° West  Level FlightAware Approximate
Wed 11:11:07 PM 42.4300 -85.0994 251° West 295 339 9,700  Level Chicago Center
Wed 11:12:00 PM 42.3849 -84.8082 256° West  Level FlightAware Approximate
Wed 11:12:08 PM 42.4053 -85.1756 246° West 237 273 8,000  Level Chicago Center
Wed 11:13:00 PM 42.3675 -84.8953 255° West  Level FlightAware Approximate
Wed 11:13:09 PM 42.3811 -85.2517 247° West 222 255 5,700  Level Chicago Center
Wed 11:14:10 PM 42.4325 -85.3033 323° Northwest 240 276 3,900 -836 Descending Chicago Center
Wed 11:15:11 PM 42.4869 -85.3350 337° Northwest 219 252 4,000  Climbing Chicago Center
Wed 11:16:13 PM 42.5386 -85.3681 335° Northwest 210 242 3,900 -49 Descending Chicago Center
Wed 11:17:14 PM 42.5425 -85.4597 273° West 208 239 3,900 49 Level Chicago Center
Wed 11:18:15 PM 42.5417 -85.5297 269° West 192 221 4,000  Climbing Chicago Center
Wed 11:19:16 PM 42.5078 -85.5772 226° Southwest 185 213 3,900 -49 Descending Chicago Center
Wed 11:20:17 PM 42.4636 -85.5950 197° South 175 201 3,900 -197 Level Chicago Center
Wed 11:21:18 PM 42.4161 -85.5892 175° South 170 196 3,500 -590 Descending Chicago Center
Wed 11:22:19 PM 42.3725 -85.5792 170° South 162 186 2,700 -393 Descending Chicago Center
Wed 11:23:20 PM 42.3389 -85.5722 171° South 132 152 2,700 -590 Level Chicago Center
Wed 11:24:21 PM 42.3053 -85.5647 171° South 115 132 1,500 -1,180 Descending Chicago Center

Login

Don't have an account? Register now (free) for customized features, flight alerts, and more!